Time;durP1;ratioP1;P1;durP2;ratioP2;P2;SDS_P1;SDS_P2;PMS_P1;PMS_P2;Temp;Humidity;BMP_temperature;BMP_pressure;BME280_temperature;BME280_humidity;BME280_pressure;Samples;Min_cycle;Max_cycle;Signal;HPM_P1;HPM_P2
2021/07/09 00:01:23;;;;;;;22.20;11.27;;;;;;;23.42;58.75;99183.84;125628;1093;102935;-73
2021/07/09 00:03:52;;;;;;;22.30;11.37;;;;;;;23.36;59.02;99185.47;125683;1096;102935;-72
2021/07/09 00:06:21;;;;;;;22.07;10.83;;;;;;;23.33;59.19;99181.25;125765;1093;102938;-72
2021/07/09 00:08:54;;;;;;;23.47;11.00;;;;;;;23.30;59.26;99192.48;125606;1093;103104;-72
2021/07/09 00:11:22;;;;;;;21.60;11.20;;;;;;;23.28;59.23;99189.13;125606;1092;102947;-72
2021/07/09 00:13:50;;;;;;;23.45;11.00;;;;;;;23.25;59.45;99192.22;125594;1095;102997;-72
2021/07/09 00:16:21;;;;;;;26.50;11.63;;;;;;;23.23;59.02;99180.71;125576;1095;103090;-72
2021/07/09 00:18:51;;;;;;;22.43;11.40;;;;;;;23.19;59.31;99185.66;125662;1096;102934;-71
2021/07/09 00:21:20;;;;;;;19.73;10.57;;;;;;;23.17;59.52;99178.76;125637;1092;102940;-71
2021/07/09 00:23:48;;;;;;;25.77;10.97;;;;;;;23.14;59.71;99188.10;125704;1091;103025;-72
2021/07/09 00:26:19;;;;;;;23.87;11.17;;;;;;;23.09;59.22;99193.25;125714;1093;102907;-71
2021/07/09 00:28:47;;;;;;;24.65;11.70;;;;;;;23.07;59.83;99183.64;125694;1093;102938;-73
2021/07/09 00:31:17;;;;;;;21.43;10.23;;;;;;;23.02;59.76;99189.64;125709;1092;102908;-73
2021/07/09 00:33:46;;;;;;;20.53;10.47;;;;;;;22.98;59.97;99191.05;125672;1093;103040;-72
2021/07/09 00:36:17;;;;;;;23.27;11.03;;;;;;;22.93;60.10;99194.31;125673;1092;103113;-73
2021/07/09 00:38:45;;;;;;;23.57;11.63;;;;;;;22.89;59.74;99182.16;125656;1093;102997;-72
2021/07/09 00:41:15;;;;;;;21.73;10.80;;;;;;;22.86;60.03;99183.39;125621;1093;103003;-71
2021/07/09 00:43:45;;;;;;;23.17;10.83;;;;;;;22.82;60.01;99186.69;125712;1093;102935;-71
2021/07/09 00:46:14;;;;;;;22.57;11.00;;;;;;;22.80;59.94;99180.60;125708;1093;102911;-72
2021/07/09 00:48:42;;;;;;;19.07;10.37;;;;;;;22.75;59.99;99173.02;125667;1092;102908;-72
2021/07/09 00:51:13;;;;;;;20.40;10.40;;;;;;;22.73;60.05;99178.64;125714;1093;102932;-73
2021/07/09 00:53:42;;;;;;;20.95;10.60;;;;;;;22.70;60.41;99184.44;125737;1093;103084;-72
2021/07/09 00:56:10;;;;;;;25.37;11.20;;;;;;;22.66;60.68;99183.13;125719;1093;103061;-71
2021/07/09 00:58:38;;;;;;;23.60;11.33;;;;;;;22.63;60.79;99179.93;125691;1093;102991;-71
2021/07/09 01:01:07;;;;;;;22.43;10.97;;;;;;;22.59;60.31;99176.77;125637;1093;102910;-71
2021/07/09 01:03:35;;;;;;;21.80;11.27;;;;;;;22.57;60.93;99166.13;125684;1093;103062;-71
2021/07/09 01:06:06;;;;;;;20.00;10.73;;;;;;;22.56;60.63;99166.30;125702;1093;103061;-71
2021/07/09 01:08:34;;;;;;;23.10;11.13;;;;;;;22.52;61.03;99163.13;125705;1093;103003;-72
2021/07/09 01:11:05;;;;;;;27.27;11.07;;;;;;;22.48;60.96;99166.38;125690;1092;103004;-73
2021/07/09 01:13:34;;;;;;;21.03;10.57;;;;;;;22.42;60.64;99165.24;125696;1093;103059;-72
2021/07/09 01:16:04;;;;;;;19.97;10.13;;;;;;;22.38;60.95;99169.34;125716;1093;103001;-71
2021/07/09 01:18:36;;;;;;;21.60;10.65;;;;;;;22.31;60.80;99164.67;125684;1093;102910;-71
2021/07/09 01:21:07;;;;;;;20.77;10.60;;;;;;;22.23;61.49;99156.63;125678;1093;103071;-70
2021/07/09 01:23:40;;;;;;;20.40;10.50;;;;;;;22.18;61.22;99155.51;125710;1093;102996;-71
2021/07/09 01:26:11;;;;;;;20.25;10.10;;;;;;;22.13;61.30;99156.07;125698;1093;102912;-72
2021/07/09 01:28:41;;;;;;;23.10;11.23;;;;;;;22.11;61.83;99147.29;125671;1093;102906;-73
2021/07/09 01:31:09;;;;;;;18.20;9.83;;;;;;;22.12;61.45;99144.38;125680;1093;103087;-74
2021/07/09 01:33:38;;;;;;;20.63;10.40;;;;;;;22.14;61.78;99149.63;125732;1093;103539;-73
2021/07/09 01:36:08;;;;;;;22.97;10.77;;;;;;;22.13;61.77;99146.06;125709;1093;103004;-72
2021/07/09 01:38:39;;;;;;;19.55;11.00;;;;;;;22.11;61.64;99153.53;125661;1093;103031;-71
2021/07/09 01:41:08;;;;;;;21.63;9.93;;;;;;;22.11;61.84;99155.41;125725;1093;103053;-72
2021/07/09 01:43:38;;;;;;;20.57;9.90;;;;;;;22.11;62.04;99145.41;125649;1093;102910;-71
2021/07/09 01:46:06;;;;;;;21.27;9.93;;;;;;;22.07;61.87;99149.51;125677;1093;102908;-71
2021/07/09 01:48:35;;;;;;;21.73;10.40;;;;;;;22.05;61.94;99153.44;125743;1093;102934;-71
2021/07/09 01:51:06;;;;;;;21.23;10.40;;;;;;;22.04;61.98;99143.63;125632;1094;103047;-73
2021/07/09 01:53:34;;;;;;;24.47;11.13;;;;;;;22.04;62.43;99146.34;125688;1093;103026;-72
2021/07/09 01:56:03;;;;;;;20.67;10.87;;;;;;;22.03;62.23;99140.06;125677;1093;103058;-72
2021/07/09 01:58:31;;;;;;;23.33;11.20;;;;;;;22.01;62.42;99140.27;125691;1093;103062;-72
2021/07/09 02:01:00;;;;;;;23.43;10.97;;;;;;;22.00;62.64;99132.34;125700;1093;103017;-71
2021/07/09 02:03:28;;;;;;;20.63;11.50;;;;;;;21.97;62.36;99141.66;125647;1093;103511;-71
2021/07/09 02:05:57;;;;;;;22.40;11.85;;;;;;;21.94;62.31;99133.07;125680;1093;102910;-72
2021/07/09 02:08:25;;;;;;;21.80;12.60;;;;;;;21.90;62.46;99137.99;125683;1093;102914;-72
2021/07/09 02:10:54;;;;;;;23.83;12.70;;;;;;;21.87;62.67;99132.94;125744;1093;103111;-72
2021/07/09 02:13:22;;;;;;;20.73;11.73;;;;;;;21.84;62.80;99133.31;125700;1093;102981;-72
2021/07/09 02:15:50;;;;;;;24.33;13.90;;;;;;;21.81;62.89;99128.26;125676;1093;103039;-73
2021/07/09 02:18:19;;;;;;;22.07;12.63;;;;;;;21.80;63.20;99127.43;125691;1093;102916;-72
2021/07/09 02:20:47;;;;;;;24.63;13.90;;;;;;;21.79;63.03;99127.63;125719;1093;103121;-72
2021/07/09 02:23:16;;;;;;;23.73;13.33;;;;;;;21.78;63.26;99129.48;125732;1093;102932;-74
2021/07/09 02:25:49;;;;;;;25.47;13.27;;;;;;;21.78;63.29;99120.53;125753;1093;102997;-73
2021/07/09 02:28:17;;;;;;;25.90;13.50;;;;;;;21.77;63.37;99121.55;125705;1093;103060;-70
2021/07/09 02:30:46;;;;;;;22.83;14.00;;;;;;;21.76;63.42;99119.88;125711;1093;102943;-74
2021/07/09 02:33:14;;;;;;;24.67;14.27;;;;;;;21.77;63.31;99118.84;125682;1093;103029;-74
2021/07/09 02:35:47;;;;;;;24.27;14.03;;;;;;;21.81;63.70;99120.13;125655;1093;102939;-73
2021/07/09 02:38:15;;;;;;;23.73;13.87;;;;;;;21.84;63.69;99119.77;125609;1091;103028;-72
2021/07/09 02:40:44;;;;;;;24.27;13.63;;;;;;;21.87;64.19;99122.11;125598;1093;102936;-73
2021/07/09 02:43:14;;;;;;;24.10;14.17;;;;;;;21.91;63.87;99115.31;125741;1093;102882;-72
2021/07/09 02:45:43;;;;;;;24.57;13.80;;;;;;;21.94;63.48;99117.65;125670;1093;102910;-73
2021/07/09 02:48:20;;;;;;;23.63;13.53;;;;;;;21.96;63.98;99115.59;125696;1093;103050;-72
2021/07/09 02:50:48;;;;;;;22.77;13.57;;;;;;;21.99;64.12;99108.99;125692;1093;103050;-73
2021/07/09 02:53:16;;;;;;;23.30;13.73;;;;;;;22.03;64.22;99112.16;125674;1093;103087;-71
2021/07/09 02:55:45;;;;;;;24.30;13.77;;;;;;;22.06;63.96;99106.38;125674;1093;102929;-72
2021/07/09 02:58:13;;;;;;;22.33;12.47;;;;;;;22.07;64.11;99100.75;125688;1093;103011;-71
2021/07/09 03:00:41;;;;;;;22.10;12.07;;;;;;;22.07;64.05;99100.75;125701;1093;102921;-73
2021/07/09 03:03:10;;;;;;;21.63;12.33;;;;;;;22.09;63.88;99100.59;125717;1093;103025;-72
2021/07/09 03:05:38;;;;;;;24.43;11.70;;;;;;;22.07;64.02;99097.22;125675;1093;102930;-71
2021/07/09 03:08:07;;;;;;;22.17;11.17;;;;;;;22.06;64.13;99090.95;125704;1093;103154;-71
2021/07/09 03:10:35;;;;;;;21.83;12.13;;;;;;;22.05;64.19;99094.69;125667;1097;103418;-72
2021/07/09 03:13:03;;;;;;;22.77;12.30;;;;;;;22.05;64.72;99086.56;125720;1093;102936;-71
2021/07/09 03:15:32;;;;;;;21.03;11.20;;;;;;;22.00;64.05;99084.42;125695;1093;103016;-71
2021/07/09 03:18:00;;;;;;;23.87;12.97;;;;;;;22.00;64.53;99087.13;125642;1093;103188;-72
2021/07/09 03:20:28;;;;;;;25.17;14.80;;;;;;;22.03;64.51;99096.73;125690;1093;103058;-71
2021/07/09 03:22:57;;;;;;;23.80;15.17;;;;;;;22.05;64.40;99083.02;125668;1093;102909;-71
2021/07/09 03:25:25;;;;;;;24.90;15.77;;;;;;;22.09;64.38;99082.45;125711;1093;103018;-72
2021/07/09 03:27:53;;;;;;;25.20;14.13;;;;;;;22.13;64.71;99091.89;125691;1093;103192;-70
2021/07/09 03:30:22;;;;;;;22.17;13.80;;;;;;;22.18;64.69;99085.94;125684;1093;103044;-72
2021/07/09 03:32:50;;;;;;;22.37;13.97;;;;;;;22.22;64.65;99089.09;125701;1093;103006;-72
2021/07/09 03:35:19;;;;;;;21.90;13.23;;;;;;;22.25;64.87;99086.84;125690;1093;103012;-72
2021/07/09 03:37:47;;;;;;;21.50;13.60;;;;;;;22.30;64.74;99094.42;125713;1093;103005;-72
2021/07/09 03:40:18;;;;;;;24.97;13.20;;;;;;;22.35;64.88;99093.85;125669;1093;103029;-72
2021/07/09 03:42:48;;;;;;;22.33;13.33;;;;;;;22.39;64.64;99093.31;125662;1093;103026;-72
2021/07/09 03:45:19;;;;;;;25.17;13.70;;;;;;;22.44;64.84;99092.77;125727;1093;102991;-72
2021/07/09 03:47:51;;;;;;;22.63;13.73;;;;;;;22.46;65.14;99090.70;125667;1093;103012;-71
2021/07/09 03:50:19;;;;;;;22.10;12.83;;;;;;;22.49;64.93;99090.33;125694;1096;102987;-73
2021/07/09 03:52:47;;;;;;;28.77;14.93;;;;;;;22.50;64.55;99093.87;125698;1096;103031;-72
2021/07/09 03:55:16;;;;;;;24.17;13.13;;;;;;;22.51;64.98;99088.27;125683;1094;102997;-72
2021/07/09 03:57:44;;;;;;;23.23;13.60;;;;;;;22.53;65.12;99094.34;125707;1095;102911;-72
2021/07/09 04:00:16;;;;;;;22.43;12.97;;;;;;;22.54;65.24;99084.33;125632;1094;103032;-71
2021/07/09 04:02:44;;;;;;;24.70;14.05;;;;;;;22.55;65.18;99086.02;125650;1093;103058;-72
2021/07/09 04:05:13;;;;;;;23.03;13.33;;;;;;;22.57;65.59;99087.52;125678;1093;102909;-72
2021/07/09 04:07:41;;;;;;;22.20;12.90;;;;;;;22.60;65.34;99091.71;125651;1093;102917;-72
2021/07/09 04:10:12;;;;;;;26.70;11.95;;;;;;;22.62;65.53;99095.08;125703;1093;102911;-73
2021/07/09 04:12:41;;;;;;;21.00;12.20;;;;;;;22.65;65.56;99091.98;125689;1093;102994;-74
2021/07/09 04:15:11;;;;;;;21.53;12.57;;;;;;;22.68;65.29;99101.59;125670;1093;103020;-73
2021/07/09 04:17:40;;;;;;;25.40;13.37;;;;;;;22.72;65.56;99092.05;125709;1096;103001;-70
2021/07/09 04:20:10;;;;;;;22.50;13.60;;;;;;;22.77;65.56;99105.89;125669;1095;103161;-70
2021/07/09 04:22:41;;;;;;;23.53;12.57;;;;;;;22.83;65.34;99101.56;125711;1094;102941;-75
2021/07/09 04:25:12;;;;;;;21.93;12.80;;;;;;;22.87;65.31;99102.86;125697;1096;103022;-69
2021/07/09 04:27:43;;;;;;;22.70;12.27;;;;;;;22.92;65.46;99105.02;125674;1096;102916;-68
2021/07/09 04:30:14;;;;;;;22.07;12.70;;;;;;;22.95;65.27;99105.47;125664;1096;103411;-69
2021/07/09 04:32:44;;;;;;;24.40;13.13;;;;;;;22.97;65.37;99108.83;125637;1096;103149;-71
2021/07/09 04:35:15;;;;;;;21.67;12.67;;;;;;;22.98;65.33;99115.94;125662;1093;102935;-65
2021/07/09 04:37:43;;;;;;;23.37;14.37;;;;;;;22.98;65.63;99112.40;125584;1094;102939;-71
2021/07/09 04:40:12;;;;;;;21.93;12.30;;;;;;;22.97;65.26;99108.00;125716;1093;102975;-73
2021/07/09 04:42:40;;;;;;;23.03;12.77;;;;;;;22.98;65.75;99104.27;125624;1096;102997;-76
2021/07/09 04:45:15;;;;;;;21.03;11.97;;;;;;;22.97;65.70;99105.29;125535;1090;103082;-76
2021/07/09 04:47:43;;;;;;;24.87;13.23;;;;;;;22.98;65.54;99107.80;125638;1093;103077;-73
2021/07/09 04:50:14;;;;;;;21.90;11.97;;;;;;;23.01;65.65;99112.02;125646;1093;102912;-71
2021/07/09 04:52:45;;;;;;;24.37;13.57;;;;;;;23.03;65.48;99109.92;125715;1096;102913;-69
2021/07/09 04:55:15;;;;;;;23.10;13.60;;;;;;;23.06;65.70;99112.25;125716;1095;103068;-73
2021/07/09 04:57:43;;;;;;;21.70;11.50;;;;;;;23.10;65.43;99115.44;125675;1093;102994;-71
2021/07/09 05:00:12;;;;;;;20.87;11.73;;;;;;;23.13;65.53;99121.31;125676;1093;103006;-72
2021/07/09 05:02:41;;;;;;;24.20;11.70;;;;;;;23.18;65.78;99120.75;125686;1093;102913;-71
2021/07/09 05:05:15;;;;;;;19.87;12.23;;;;;;;23.21;66.01;99117.66;125711;1093;102921;-71
2021/07/09 05:07:48;;;;;;;23.03;11.83;;;;;;;23.27;65.85;99113.34;125688;1092;103077;-71
2021/07/09 05:10:17;;;;;;;20.93;11.73;;;;;;;23.32;65.68;99109.02;125633;1093;104074;-72
2021/07/09 05:12:47;;;;;;;19.80;10.13;;;;;;;23.39;66.14;99108.24;125600;1093;102910;-70
2021/07/09 05:15:17;;;;;;;20.10;11.25;;;;;;;23.48;66.02;99109.80;126498;1094;103450;-72
2021/07/09 05:17:47;;;;;;;20.07;10.93;;;;;;;23.59;66.12;99103.84;126222;1094;102910;-72
2021/07/09 05:20:16;;;;;;;21.87;11.57;;;;;;;23.71;65.91;99109.58;125597;1093;103075;-72
2021/07/09 05:22:44;;;;;;;20.13;11.03;;;;;;;23.83;65.92;99109.88;125590;1092;103050;-73
2021/07/09 05:25:15;;;;;;;19.47;11.57;;;;;;;23.91;66.13;99108.88;125603;1093;103026;-71
2021/07/09 05:27:46;;;;;;;17.80;10.50;;;;;;;23.99;65.57;99110.66;125718;1092;102930;-70
2021/07/09 05:30:17;;;;;;;19.60;10.67;;;;;;;24.03;65.64;99099.19;125707;1093;103368;-72
2021/07/09 05:32:47;;;;;;;19.23;10.10;;;;;;;24.09;65.60;99108.41;125646;1093;102911;-70
2021/07/09 05:35:18;;;;;;;20.70;10.55;;;;;;;24.15;65.99;99110.33;126547;1094;103537;-72
2021/07/09 05:37:46;;;;;;;19.80;10.60;;;;;;;24.21;65.51;99109.53;125665;1093;102906;-71
2021/07/09 05:40:14;;;;;;;21.15;10.05;;;;;;;24.27;65.59;99115.22;125638;1092;103091;-71
2021/07/09 05:42:44;;;;;;;18.70;10.00;;;;;;;24.31;65.72;99108.34;125624;1093;103067;-71
2021/07/09 05:45:13;;;;;;;20.40;10.43;;;;;;;24.37;65.87;99118.42;125610;1092;102881;-71
2021/07/09 05:47:41;;;;;;;23.37;10.53;;;;;;;24.45;65.53;99120.13;125667;1093;103054;-71
2021/07/09 05:50:12;;;;;;;18.87;10.27;;;;;;;24.52;65.44;99107.41;125679;1093;102959;-72
2021/07/09 05:52:40;;;;;;;18.13;11.13;;;;;;;24.61;65.55;99106.20;125705;1096;103009;-72
2021/07/09 05:55:09;;;;;;;19.60;10.73;;;;;;;24.70;65.31;99106.86;125693;1096;103134;-72
2021/07/09 05:57:39;;;;;;;21.03;9.83;;;;;;;24.79;65.52;99102.10;125721;1096;102948;-72
2021/07/09 06:00:12;;;;;;;17.30;9.73;;;;;;;24.88;65.31;99108.19;125667;1096;102994;-72
2021/07/09 06:02:40;;;;;;;19.15;10.78;;;;;;;24.94;65.43;99110.09;125743;1096;103064;-71
2021/07/09 06:05:11;;;;;;;17.57;9.70;;;;;;;25.00;65.38;99103.84;125682;1097;103045;-72
2021/07/09 06:07:39;;;;;;;22.00;9.90;;;;;;;25.09;65.21;99105.34;125711;1096;103012;-71
2021/07/09 06:10:10;;;;;;;20.23;10.23;;;;;;;25.20;65.44;99108.51;125649;1096;103091;-72
2021/07/09 06:12:39;;;;;;;17.03;8.90;;;;;;;25.31;65.23;99104.33;125659;1093;103508;-72
2021/07/09 06:15:10;;;;;;;17.63;9.10;;;;;;;25.44;65.08;99103.53;125689;1093;103064;-71
2021/07/09 06:17:38;;;;;;;16.23;8.53;;;;;;;25.63;65.01;99110.04;125726;1093;102936;-71
2021/07/09 06:20:09;;;;;;;16.70;8.37;;;;;;;25.77;64.84;99106.28;125696;1092;102933;-73
2021/07/09 06:22:37;;;;;;;17.10;7.27;;;;;;;25.90;64.12;99102.70;125711;1093;102952;-72
2021/07/09 06:25:06;;;;;;;17.63;7.53;;;;;;;26.02;63.60;99108.34;125680;1092;103025;-72
2021/07/09 06:27:37;;;;;;;13.17;7.23;;;;;;;26.22;63.51;99107.52;125711;1093;103006;-72
2021/07/09 06:30:08;;;;;;;12.27;6.60;;;;;;;26.42;63.36;99102.83;125661;1093;103059;-73
2021/07/09 06:32:37;;;;;;;14.03;7.53;;;;;;;26.62;63.05;99107.39;125699;1092;102916;-72
2021/07/09 06:35:09;;;;;;;12.43;6.77;;;;;;;26.62;63.20;99104.66;125650;1096;102963;-73
2021/07/09 06:37:38;;;;;;;14.07;7.23;;;;;;;26.69;62.79;99107.35;126408;1095;102931;-73
2021/07/09 06:40:09;;;;;;;17.73;7.57;;;;;;;26.77;62.99;99103.53;125636;1094;102942;-73
2021/07/09 06:42:40;;;;;;;12.63;6.80;;;;;;;26.86;62.78;99105.84;125602;1095;102971;-74
2021/07/09 06:45:08;;;;;;;13.60;7.07;;;;;;;26.99;62.49;99109.54;125606;1094;103044;-72
2021/07/09 06:47:39;;;;;;;16.65;7.55;;;;;;;27.11;62.55;99099.61;125692;1096;103118;-72
2021/07/09 06:50:08;;;;;;;15.20;7.00;;;;;;;27.22;62.21;99106.26;125674;1096;103054;-73
2021/07/09 06:52:36;;;;;;;14.47;7.17;;;;;;;27.31;61.75;99110.41;125708;1096;103087;-72
2021/07/09 06:55:07;;;;;;;12.27;6.60;;;;;;;27.41;61.86;99111.81;125670;1094;102940;-72
2021/07/09 06:57:38;;;;;;;14.55;6.70;;;;;;;27.56;61.68;99106.88;125725;1096;102981;-72
2021/07/09 07:00:09;;;;;;;12.63;6.57;;;;;;;27.72;61.07;99104.66;125694;1096;103011;-73
2021/07/09 07:02:37;;;;;;;14.97;6.90;;;;;;;27.84;60.99;99091.10;125686;1096;103074;-74
2021/07/09 07:05:08;;;;;;;13.73;7.10;;;;;;;27.98;60.66;99098.13;125707;1095;103004;-74
2021/07/09 07:07:37;;;;;;;14.53;7.20;;;;;;;28.13;60.28;99084.13;125706;1093;103020;-72
2021/07/09 07:10:09;;;;;;;14.43;7.30;;;;;;;28.29;60.16;99090.06;125710;1093;102996;-73
2021/07/09 07:12:41;;;;;;;15.20;7.15;;;;;;;28.45;60.22;99083.15;125719;1093;103003;-74
2021/07/09 07:15:15;;;;;;;16.67;7.97;;;;;;;28.59;60.12;99083.81;125649;1093;103079;-73
2021/07/09 07:17:43;;;;;;;16.97;7.10;;;;;;;28.77;59.29;99102.14;125673;1093;102993;-72
2021/07/09 07:20:14;;;;;;;13.00;7.33;;;;;;;28.86;59.30;99084.34;125689;1093;103002;-72
2021/07/09 07:22:42;;;;;;;13.60;7.50;;;;;;;29.02;58.89;99090.22;125678;1093;102910;-74
2021/07/09 07:25:13;;;;;;;17.17;6.87;;;;;;;29.20;58.18;99083.84;125674;1093;103371;-72
2021/07/09 07:27:41;;;;;;;12.37;7.20;;;;;;;29.34;58.48;99088.06;125712;1093;102937;-75
2021/07/09 07:30:12;;;;;;;12.67;7.03;;;;;;;29.52;58.04;99089.91;125705;1093;103058;-78
2021/07/09 07:32:46;;;;;;;14.77;7.30;;;;;;;29.69;57.67;99083.75;125683;1093;102934;-75
2021/07/09 07:35:15;;;;;;;12.43;7.10;;;;;;;29.78;57.20;99078.73;125683;1093;102930;-73
2021/07/09 07:37:44;;;;;;;14.53;7.00;;;;;;;29.93;56.98;99072.77;125662;1093;102966;-72
2021/07/09 07:40:12;;;;;;;15.37;6.87;;;;;;;30.15;56.36;99064.80;125690;1093;103058;-72
2021/07/09 07:42:41;;;;;;;16.90;7.27;;;;;;;30.40;56.60;99075.48;125727;1093;103032;-72
2021/07/09 07:45:12;;;;;;;14.33;6.83;;;;;;;30.62;56.44;99068.55;125691;1093;102930;-73
2021/07/09 07:47:43;;;;;;;14.00;6.87;;;;;;;31.08;56.11;99074.91;125706;1093;102991;-74
2021/07/09 07:50:16;;;;;;;13.77;6.50;;;;;;;31.70;55.47;99067.72;125676;1093;102999;-73
2021/07/09 07:52:45;;;;;;;12.97;6.60;;;;;;;32.35;54.87;99067.31;125650;1093;103119;-73
2021/07/09 07:55:13;;;;;;;13.00;6.40;;;;;;;32.97;55.01;99057.05;125687;1093;102971;-73
2021/07/09 07:57:42;;;;;;;12.10;6.60;;;;;;;33.42;54.25;99062.45;125632;1093;102923;-73
2021/07/09 08:00:13;;;;;;;10.20;5.90;;;;;;;33.93;53.53;99062.83;125751;1093;102923;-72
2021/07/09 08:02:43;;;;;;;13.97;6.23;;;;;;;34.20;52.40;99066.56;125624;1096;102754;-73
2021/07/09 08:05:15;;;;;;;11.07;5.83;;;;;;;34.44;51.87;99059.52;125631;1094;102914;-73
2021/07/09 08:07:46;;;;;;;12.10;5.88;;;;;;;34.68;51.37;99060.97;125708;1093;103364;-73
2021/07/09 08:10:14;;;;;;;11.57;5.97;;;;;;;34.81;49.78;99065.18;125667;1095;103000;-74
2021/07/09 08:12:42;;;;;;;9.10;5.63;;;;;;;34.92;50.65;99055.78;125711;1093;102942;-73
2021/07/09 08:15:11;;;;;;;14.80;6.30;;;;;;;35.14;49.66;99044.52;125694;1094;103044;-73
2021/07/09 08:17:39;;;;;;;11.57;6.23;;;;;;;35.43;49.68;99054.20;125679;1097;102980;-73
2021/07/09 08:20:13;;;;;;;13.47;6.27;;;;;;;35.61;48.55;99048.16;125704;1093;102915;-74
2021/07/09 08:22:44;;;;;;;20.70;6.50;;;;;;;35.64;47.70;99041.22;125668;1093;103004;-74
2021/07/09 08:25:16;;;;;;;12.13;6.35;;;;;;;35.43;46.98;99048.67;125709;1093;103004;-73
2021/07/09 08:27:45;;;;;;;14.20;6.00;;;;;;;35.46;47.32;99045.36;125715;1093;103012;-73
2021/07/09 08:30:14;;;;;;;11.03;6.13;;;;;;;35.71;46.45;99046.45;125653;1096;103051;-74
2021/07/09 08:32:42;;;;;;;10.73;5.93;;;;;;;35.74;46.33;99040.36;125728;1095;102916;-74
2021/07/09 08:35:12;;;;;;;14.43;6.47;;;;;;;35.74;45.18;99059.73;125682;1096;102953;-73
2021/07/09 08:37:54;;;;;;;14.77;6.37;;;;;;;35.65;44.99;99050.36;125686;1096;102941;-73
2021/07/09 08:40:22;;;;;;;14.50;6.23;;;;;;;35.60;43.56;99045.64;125700;1096;102945;-73
2021/07/09 08:42:51;;;;;;;15.13;6.00;;;;;;;35.61;43.56;99050.92;125660;1093;103055;-74
2021/07/09 08:45:19;;;;;;;14.57;5.50;;;;;;;35.54;43.15;99043.98;125666;1096;103031;-74
2021/07/09 08:47:48;;;;;;;14.47;6.00;;;;;;;35.63;43.21;99049.81;125759;1093;103440;-71
2021/07/09 08:50:18;;;;;;;10.40;5.00;;;;;;;35.91;42.60;99062.19;125675;1093;102930;-73
2021/07/09 08:52:49;;;;;;;13.37;5.43;;;;;;;35.76;42.18;99047.30;125756;1093;103065;-72
2021/07/09 08:55:21;;;;;;;12.90;6.65;;;;;;;35.69;41.52;99059.73;125649;1093;103409;-74
2021/07/09 08:57:49;;;;;;;18.95;6.90;;;;;;;35.63;42.00;99047.86;125660;1093;103058;-73
2021/07/09 09:00:35;;;;;;;14.43;6.50;;;;;;;35.65;41.42;99042.88;125639;1093;103154;-74
2021/07/09 09:03:24;;;;;;;17.80;6.67;;;;;;;35.53;41.10;99039.56;125712;1095;102984;-74
2021/07/09 09:06:00;;;;;;;12.20;6.90;;;;;;;35.72;40.96;99048.96;125742;1095;103074;-74
2021/07/09 09:08:34;;;;;;;9.97;5.77;;;;;;;35.84;40.41;99045.08;125640;1093;102991;-73
2021/07/09 09:11:03;;;;;;;12.80;6.07;;;;;;;35.69;40.58;99041.22;125705;1093;103018;-73
2021/07/09 09:13:37;;;;;;;13.87;6.80;;;;;;;35.70;41.07;99044.80;125681;1093;103159;-73
2021/07/09 09:16:12;;;;;;;11.77;6.10;;;;;;;35.81;41.39;99034.56;125702;1093;102910;-74
2021/07/09 09:18:58;;;;;;;12.93;6.43;;;;;;;35.88;40.02;99037.84;125664;1093;102910;-74
2021/07/09 09:21:27;;;;;;;13.07;6.37;;;;;;;35.89;40.53;99050.57;125634;1093;102948;-74
2021/07/09 09:23:58;;;;;;;13.75;6.50;;;;;;;35.67;39.10;99048.12;125687;1093;103062;-74
2021/07/09 09:26:56;;;;;;;11.10;6.63;;;;;;;35.48;39.86;99034.88;125642;1093;103043;-73
2021/07/09 09:29:24;;;;;;;12.03;6.10;;;;;;;35.49;39.88;99047.60;125696;1093;102905;-73
2021/07/09 09:32:07;;;;;;;14.43;6.97;;;;;;;35.53;39.19;99043.17;125674;1092;102991;-74
2021/07/09 09:34:38;;;;;;;13.23;6.83;;;;;;;35.40;38.73;99054.76;125647;1093;103044;-74
2021/07/09 09:37:14;;;;;;;15.13;7.03;;;;;;;35.26;39.04;99047.00;125686;1093;102945;-73
2021/07/09 09:39:48;;;;;;;14.60;6.27;;;;;;;35.22;38.68;99040.40;125644;1093;102912;-73
2021/07/09 09:42:22;;;;;;;14.00;7.17;;;;;;;35.12;39.39;99037.63;125655;1093;102970;-74
2021/07/09 09:45:08;;;;;;;14.53;7.23;;;;;;;35.08;38.53;99042.84;125634;1093;103020;-73
2021/07/09 09:47:38;;;;;;;14.47;7.07;;;;;;;34.87;38.80;99045.56;125625;1093;103125;-72
2021/07/09 09:50:19;;;;;;;13.20;6.83;;;;;;;34.76;37.73;99048.59;125644;1093;102995;-73
2021/07/09 09:52:56;;;;;;;14.10;7.60;;;;;;;34.61;38.24;99036.39;125620;1093;103031;-73
2021/07/09 09:55:33;;;;;;;12.53;6.90;;;;;;;34.49;37.92;99035.78;125675;1093;103096;-75
2021/07/09 09:58:20;;;;;;;16.60;7.83;;;;;;;34.12;38.01;99032.85;125650;1092;102910;-74
2021/07/09 10:00:53;;;;;;;11.30;6.30;;;;;;;33.96;38.36;99026.42;125658;1093;103031;-76
2021/07/09 10:03:21;;;;;;;12.57;7.77;;;;;;;33.88;38.79;99031.59;125720;1093;103062;-75
2021/07/09 10:05:52;;;;;;;12.40;7.30;;;;;;;33.75;38.03;99030.97;125780;1094;102913;-74
2021/07/09 10:08:24;;;;;;;16.10;7.60;;;;;;;33.52;38.30;99029.42;125650;1095;103026;-74
2021/07/09 10:10:58;;;;;;;12.65;6.30;;;;;;;33.39;38.51;99030.71;125691;1094;103474;-75
2021/07/09 10:13:32;;;;;;;15.03;7.80;;;;;;;33.24;38.38;99021.19;125685;1092;103052;-76
2021/07/09 10:16:07;;;;;;;19.33;7.97;;;;;;;33.08;38.83;99028.48;125722;1093;102910;-74
2021/07/09 10:18:36;;;;;;;17.40;7.60;;;;;;;33.00;38.78;99037.25;125626;1092;103031;-74
2021/07/09 10:21:04;;;;;;;15.10;7.90;;;;;;;32.84;38.98;99033.48;125682;1093;102911;-73
2021/07/09 10:23:33;;;;;;;14.97;7.73;;;;;;;32.69;39.08;99025.87;125628;1093;102932;-74
2021/07/09 10:26:02;;;;;;;14.03;8.20;;;;;;;32.64;39.30;99021.15;125594;1093;103203;-74
2021/07/09 10:28:30;;;;;;;16.60;7.83;;;;;;;32.70;39.38;99030.28;125694;1093;101039;-73
2021/07/09 10:30:59;;;;;;;15.43;7.93;;;;;;;32.58;39.24;99030.44;125650;1095;103441;-75
2021/07/09 10:33:35;;;;;;;15.47;8.40;;;;;;;32.47;39.43;99023.99;125697;1095;102938;-75
2021/07/09 10:36:07;;;;;;;19.87;8.47;;;;;;;32.39;39.22;99024.44;125642;1095;102993;-75
2021/07/09 10:38:42;;;;;;;18.40;8.13;;;;;;;32.32;39.82;99032.05;125721;1092;103391;-78
2021/07/09 10:41:19;;;;;;;18.60;8.70;;;;;;;32.31;39.70;99019.38;125685;1093;102926;-76
2021/07/09 10:44:06;;;;;;;14.23;8.03;;;;;;;32.28;39.66;99017.98;125694;1092;103005;-77
2021/07/09 10:46:34;;;;;;;14.30;7.83;;;;;;;32.29;40.02;99014.15;125728;1093;103037;-73
2021/07/09 10:49:03;;;;;;;19.63;8.47;;;;;;;32.39;40.09;99015.36;125637;1095;102969;-75
2021/07/09 10:51:52;;;;;;;15.47;8.10;;;;;;;32.45;39.98;99015.16;125612;1095;102997;-76
2021/07/09 10:54:28;;;;;;;17.77;9.00;;;;;;;32.31;40.25;99011.97;125675;1095;103414;-75
2021/07/09 10:57:22;;;;;;;18.17;8.90;;;;;;;32.22;40.13;99013.47;125688;1092;103058;-76
2021/07/09 11:00:23;;;;;;;17.50;8.57;;;;;;;32.10;40.35;99015.51;125650;1093;103007;-74
2021/07/09 11:03:07;;;;;;;15.53;8.07;;;;;;;32.12;40.53;99016.09;125637;1093;102929;-77
2021/07/09 11:05:44;;;;;;;15.27;8.27;;;;;;;32.05;40.53;99008.84;125866;1091;103051;-82
2021/07/09 11:08:32;;;;;;;14.13;8.27;;;;;;;32.00;40.42;99006.02;125645;1093;102991;-75
2021/07/09 11:11:09;;;;;;;17.07;8.57;;;;;;;31.94;40.85;99004.32;125644;1093;103042;-75
2021/07/09 11:13:42;;;;;;;18.87;9.60;;;;;;;31.96;40.65;98995.80;125479;1093;102994;-76
2021/07/09 11:16:30;;;;;;;15.63;8.17;;;;;;;31.89;40.53;98996.81;125596;1093;103023;-75
2021/07/09 11:19:09;;;;;;;14.10;8.00;;;;;;;31.90;40.83;98990.23;125607;1093;103050;-76
2021/07/09 11:21:54;;;;;;;17.57;8.57;;;;;;;31.97;40.99;98984.56;125684;1093;102942;-75